Time;durP1;ratioP1;P1;durP2;ratioP2;P2;SDS_P1;SDS_P2;PMS_P1;PMS_P2;Temp;Humidity;BMP_temperature;BMP_pressure;BME280_temperature;BME280_humidity;BME280_pressure;Samples;Min_cycle;Max_cycle;Signal;HPM_P1;HPM_P2
2022/07/12 00:00:15;;;;;;;1.98;1.00;;;;;;;;;;5111597;27;20401;-73
2022/07/12 00:07:27;;;;;;;5.13;1.30;;;;;;;;;;5112029;27;20396;-72
2022/07/12 00:09:53;;;;;;;1.23;1.00;;;;;;;;;;5111368;28;20026;-73
2022/07/12 00:12:19;;;;;;;4.15;1.27;;;;;;;;;;5110839;28;20040;-73
2022/07/12 00:14:45;;;;;;;4.43;1.10;;;;;;;;;;5111414;28;20030;-73
2022/07/12 00:19:05;;;;;;;2.05;1.20;;;;;;;;;;5111098;27;20423;-72
2022/07/12 00:21:31;;;;;;;2.10;1.30;;;;;;;;;;5111307;28;20115;-72
2022/07/12 00:26:46;;;;;;;3.80;1.50;;;;;;;;;;5111794;27;20388;-72
2022/07/12 00:29:12;;;;;;;2.65;1.10;;;;;;;;;;5111422;28;20383;-73
2022/07/12 00:31:38;;;;;;;4.35;1.42;;;;;;;;;;5111091;28;20027;-72
2022/07/12 00:34:04;;;;;;;2.08;1.10;;;;;;;;;;5111326;28;20020;-73
2022/07/12 00:36:30;;;;;;;2.28;1.20;;;;;;;;;;5109890;28;20062;-72
2022/07/12 00:39:46;;;;;;;2.88;1.38;;;;;;;;;;5110971;27;20458;-73
2022/07/12 00:42:12;;;;;;;2.45;1.15;;;;;;;;;;5111408;28;20111;-74
2022/07/12 00:44:56;;;;;;;1.88;1.20;;;;;;;;;;5111799;27;20392;-71
2022/07/12 00:47:29;;;;;;;2.92;1.17;;;;;;;;;;5109688;28;20069;-73
2022/07/12 00:49:55;;;;;;;2.80;1.13;;;;;;;;;;5110012;28;20031;-73
2022/07/12 00:53:49;;;;;;;3.40;1.20;;;;;;;;;;5111103;27;20430;-73
2022/07/12 00:56:15;;;;;;;2.40;1.20;;;;;;;;;;5111395;28;20483;-73
2022/07/12 00:59:57;;;;;;;1.63;1.05;;;;;;;;;;5111466;27;20446;-73
2022/07/12 01:02:23;;;;;;;1.60;1.05;;;;;;;;;;5111380;28;20031;-73
2022/07/12 01:06:29;;;;;;;1.67;1.00;;;;;;;;;;5070647;28;20453;-73
2022/07/12 01:09:35;;;;;;;1.88;1.13;;;;;;;;;;5111545;27;20392;-73
2022/07/12 01:12:01;;;;;;;3.97;1.25;;;;;;;;;;5111567;28;20034;-73
2022/07/12 01:14:28;;;;;;;2.17;1.17;;;;;;;;;;5110988;28;20016;-73
2022/07/12 01:16:54;;;;;;;2.42;1.25;;;;;;;;;;5111269;28;20441;-73
2022/07/12 01:19:21;;;;;;;2.88;1.35;;;;;;;;;;5111277;28;20434;-74
2022/07/12 01:21:48;;;;;;;2.22;1.15;;;;;;;;;;5126539;28;20107;-73
2022/07/12 01:24:15;;;;;;;2.55;1.33;;;;;;;;;;5111142;28;20499;-73
2022/07/12 01:26:41;;;;;;;3.42;1.42;;;;;;;;;;5111050;28;20028;-73
2022/07/12 01:29:08;;;;;;;2.38;1.08;;;;;;;;;;5126451;28;20039;-73
2022/07/12 01:33:13;;;;;;;6.50;1.25;;;;;;;;;;5111499;27;20316;-72
2022/07/12 01:36:40;;;;;;;1.05;0.90;;;;;;;;;;5111116;27;20392;-71
2022/07/12 01:39:07;;;;;;;2.25;1.48;;;;;;;;;;5111401;28;20020;-71
2022/07/12 01:41:33;;;;;;;3.90;1.30;;;;;;;;;;5111480;28;20028;-71
2022/07/12 01:46:10;;;;;;;2.00;1.50;;;;;;;;;;5112183;27;20415;-71
2022/07/12 01:50:12;;;;;;;1.95;1.40;;;;;;;;;;5111355;27;20462;-71
2022/07/12 01:54:51;;;;;;;3.92;1.40;;;;;;;;;;5111466;27;20426;-71
2022/07/12 01:59:51;;;;;;;4.28;1.52;;;;;;;;;;5111708;27;20397;-72
2022/07/12 02:02:18;;;;;;;4.13;1.40;;;;;;;;;;5111350;28;20112;-72
2022/07/12 02:04:44;;;;;;;2.92;1.48;;;;;;;;;;5111081;28;20099;-72
2022/07/12 02:07:45;;;;;;;3.40;1.30;;;;;;;;;;5092307;27;20432;-72
2022/07/12 02:15:44;;;;;;;3.10;1.20;;;;;;;;;;5111631;27;20790;-71
2022/07/12 02:20:53;;;;;;;3.22;1.17;;;;;;;;;;5111797;27;20392;-71
2022/07/12 02:23:19;;;;;;;3.58;1.20;;;;;;;;;;5111321;28;20032;-71
2022/07/12 02:25:45;;;;;;;3.75;1.70;;;;;;;;;;5109650;28;20024;-72
2022/07/12 02:28:11;;;;;;;3.67;1.45;;;;;;;;;;5109994;28;20502;-72
2022/07/12 02:32:25;;;;;;;2.47;1.08;;;;;;;;;;5111280;27;20396;-72
2022/07/12 02:34:51;;;;;;;2.67;1.30;;;;;;;;;;5111447;28;20396;-72
2022/07/12 02:39:04;;;;;;;3.35;1.20;;;;;;;;;;5070772;28;20911;-71
2022/07/12 02:42:10;;;;;;;3.85;1.33;;;;;;;;;;5111834;27;21008;-71
2022/07/12 02:46:16;;;;;;;3.67;1.45;;;;;;;;;;5111230;27;20431;-71
2022/07/12 02:50:39;;;;;;;2.00;1.27;;;;;;;;;;5111936;27;20401;-72
2022/07/12 02:54:34;;;;;;;1.95;1.00;;;;;;;;;;5111606;27;20476;-71
2022/07/12 03:00:57;;;;;;;3.72;1.35;;;;;;;;;;5103119;27;20395;-71
2022/07/12 03:04:04;;;;;;;2.22;1.33;;;;;;;;;;5111383;27;20412;-71
2022/07/12 03:06:30;;;;;;;2.55;1.30;;;;;;;;;;5110897;28;20455;-71
2022/07/12 03:08:56;;;;;;;1.80;1.30;;;;;;;;;;5111266;28;20495;-71
2022/07/12 03:11:22;;;;;;;2.22;1.40;;;;;;;;;;5127075;28;20036;-71
2022/07/12 03:15:37;;;;;;;2.17;1.23;;;;;;;;;;5111666;27;20908;-71
2022/07/12 03:18:04;;;;;;;4.05;1.77;;;;;;;;;;5110037;28;20090;-72
2022/07/12 03:20:30;;;;;;;1.85;1.30;;;;;;;;;;5109647;28;20016;-73
2022/07/12 03:23:32;;;;;;;2.97;1.50;;;;;;;;;;5112066;27;20385;-72
2022/07/12 03:25:58;;;;;;;4.28;1.40;;;;;;;;;;5111389;28;20028;-72
2022/07/12 03:30:02;;;;;;;2.80;1.30;;;;;;;;;;5111943;27;20422;-72
2022/07/12 03:33:10;;;;;;;2.22;1.20;;;;;;;;;;5111691;27;20788;-71
2022/07/12 03:35:36;;;;;;;3.80;1.75;;;;;;;;;;5109723;28;20028;-72
2022/07/12 03:38:03;;;;;;;3.05;1.33;;;;;;;;;;5111330;28;20442;-72
2022/07/12 03:40:31;;;;;;;3.25;1.50;;;;;;;;;;5111332;28;20429;-72
2022/07/12 03:43:48;;;;;;;2.72;1.10;;;;;;;;;;5112065;27;20470;-71
2022/07/12 03:46:14;;;;;;;2.28;1.35;;;;;;;;;;5127239;28;20484;-71
2022/07/12 03:50:50;;;;;;;3.88;1.27;;;;;;;;;;5051406;28;20443;-71
2022/07/12 03:54:05;;;;;;;2.47;1.48;;;;;;;;;;5111912;27;20477;-71
2022/07/12 04:00:43;;;;;;;3.28;1.20;;;;;;;;;;5071090;28;20453;-72
2022/07/12 04:03:10;;;;;;;5.25;1.73;;;;;;;;;;5069146;28;20036;-71
2022/07/12 04:07:15;;;;;;;1.35;1.25;;;;;;;;;;5111465;27;20470;-72
2022/07/12 04:09:42;;;;;;;2.97;1.45;;;;;;;;;;5110908;28;20047;-72
2022/07/12 04:12:08;;;;;;;2.10;1.38;;;;;;;;;;5111317;28;20024;-72
2022/07/12 04:14:34;;;;;;;3.58;1.45;;;;;;;;;;5110053;28;20038;-72
2022/07/12 04:17:00;;;;;;;2.75;1.23;;;;;;;;;;5109596;28;20061;-72
2022/07/12 04:19:31;;;;;;;3.03;1.35;;;;;;;;;;5111212;28;20489;-73
2022/07/12 04:21:57;;;;;;;1.35;1.15;;;;;;;;;;5111339;28;20491;-72
2022/07/12 04:26:28;;;;;;;5.63;1.70;;;;;;;;;;5112203;27;20756;-72
2022/07/12 04:28:54;;;;;;;3.65;1.30;;;;;;;;;;5111423;28;20103;-71
2022/07/12 04:33:05;;;;;;;3.03;1.75;;;;;;;;;;5111871;27;21000;-72
2022/07/12 04:36:19;;;;;;;2.90;1.38;;;;;;;;;;5111526;27;20389;-72
2022/07/12 04:38:45;;;;;;;3.38;1.75;;;;;;;;;;5111124;28;20030;-72
2022/07/12 04:44:29;;;;;;;2.25;1.45;;;;;;;;;;5111205;27;20415;-72
2022/07/12 04:46:56;;;;;;;2.97;1.30;;;;;;;;;;5111401;28;20026;-72
2022/07/12 04:49:22;;;;;;;2.38;1.40;;;;;;;;;;5111258;28;20037;-72
2022/07/12 04:52:37;;;;;;;1.40;1.17;;;;;;;;;;5111236;27;20738;-73
2022/07/12 04:55:04;;;;;;;3.88;1.42;;;;;;;;;;5111405;28;20066;-73
2022/07/12 04:57:31;;;;;;;1.77;1.30;;;;;;;;;;5111378;28;20403;-73
2022/07/12 05:01:02;;;;;;;3.10;1.23;;;;;;;;;;5111729;27;20396;-72
2022/07/12 05:03:30;;;;;;;1.63;1.00;;;;;;;;;;5110041;28;20028;-73
2022/07/12 05:05:56;;;;;;;2.95;1.25;;;;;;;;;;5110875;28;20012;-77
2022/07/12 05:09:25;;;;;;;2.40;1.75;;;;;;;;;;5111784;27;21032;-71
2022/07/12 05:11:51;;;;;;;2.25;1.48;;;;;;;;;;5109656;28;20027;-72
2022/07/12 05:14:18;;;;;;;4.22;1.60;;;;;;;;;;5110891;28;20024;-72
2022/07/12 05:16:44;;;;;;;2.95;1.33;;;;;;;;;;5109976;28;20026;-71
2022/07/12 05:19:44;;;;;;;2.83;1.50;;;;;;;;;;5109720;27;20389;-71
2022/07/12 05:23:37;;;;;;;4.15;1.38;;;;;;;;;;5110321;27;20423;-71
2022/07/12 05:28:09;;;;;;;3.08;1.45;;;;;;;;;;5122317;27;20341;-73
2022/07/12 05:30:36;;;;;;;2.85;1.42;;;;;;;;;;5107802;28;20036;-72
2022/07/12 05:33:02;;;;;;;2.20;1.25;;;;;;;;;;5109416;28;20024;-71
2022/07/12 05:35:28;;;;;;;1.42;1.08;;;;;;;;;;5089592;28;20024;-73
2022/07/12 05:39:10;;;;;;;2.75;1.27;;;;;;;;;;5109038;27;20461;-72
2022/07/12 05:41:36;;;;;;;2.33;1.35;;;;;;;;;;5109841;28;20753;-72
2022/07/12 05:44:02;;;;;;;4.15;1.23;;;;;;;;;;5126902;28;20069;-76
2022/07/12 05:46:28;;;;;;;3.22;1.67;;;;;;;;;;5114208;28;20029;-73
2022/07/12 05:50:07;;;;;;;3.72;1.50;;;;;;;;;;5070046;28;20411;-73
2022/07/12 05:55:18;;;;;;;3.58;1.25;;;;;;;;;;5057044;28;20449;-74
2022/07/12 05:59:20;;;;;;;3.72;1.23;;;;;;;;;;5110624;27;20745;-74
2022/07/12 06:01:46;;;;;;;1.80;1.10;;;;;;;;;;5109150;28;20404;-74
2022/07/12 06:04:12;;;;;;;3.55;1.48;;;;;;;;;;5108101;28;20028;-72
2022/07/12 06:06:38;;;;;;;3.30;1.58;;;;;;;;;;5104897;28;20123;-72
2022/07/12 06:09:04;;;;;;;3.80;1.40;;;;;;;;;;5103989;28;20023;-70
2022/07/12 06:16:10;;;;;;;2.53;0.77;;;;;;;;;;5046046;28;20417;-77
2022/07/12 06:18:36;;;;;;;1.88;1.20;;;;;;;;;;5046342;28;20029;-76
2022/07/12 06:21:03;;;;;;;2.65;1.02;;;;;;;;;;5047989;28;20033;-76
2022/07/12 06:23:29;;;;;;;3.67;1.10;;;;;;;;;;5048260;28;20116;-74
2022/07/12 06:25:55;;;;;;;4.00;0.85;;;;;;;;;;5043900;28;20119;-77
2022/07/12 06:28:21;;;;;;;2.85;0.95;;;;;;;;;;5056158;28;20450;-75
2022/07/12 06:32:00;;;;;;;2.67;0.90;;;;;;;;;;5090765;27;20793;-76
2022/07/12 06:34:26;;;;;;;1.00;0.65;;;;;;;;;;5106463;28;20038;-78
2022/07/12 06:40:18;;;;;;;3.42;1.00;;;;;;;;;;5111258;27;20908;-74
2022/07/12 06:43:43;;;;;;;1.50;0.95;;;;;;;;;;5108612;27;20480;-75
2022/07/12 06:46:59;;;;;;;2.55;0.90;;;;;;;;;;5134683;27;20424;-76
2022/07/12 06:49:25;;;;;;;1.13;0.60;;;;;;;;;;5128996;27;20054;-74
2022/07/12 06:51:52;;;;;;;2.30;1.00;;;;;;;;;;5149529;27;20542;-72
2022/07/12 06:56:37;;;;;;;2.75;1.40;;;;;;;;;;5034380;28;20419;-72
2022/07/12 06:59:03;;;;;;;3.38;1.15;;;;;;;;;;5029490;28;20028;-72
2022/07/12 07:01:52;;;;;;;1.95;0.90;;;;;;;;;;5087355;27;20530;-70
2022/07/12 07:04:18;;;;;;;6.15;1.35;;;;;;;;;;5090236;28;20031;-71
2022/07/12 07:06:45;;;;;;;24.35;3.97;;;;;;;;;;5097866;28;20028;-71
2022/07/12 07:09:11;;;;;;;7.75;1.55;;;;;;;;;;5104407;28;20028;-71
2022/07/12 07:11:37;;;;;;;4.35;1.45;;;;;;;;;;5110599;28;20027;-71
2022/07/12 07:14:03;;;;;;;3.75;1.50;;;;;;;;;;5105479;28;20042;-71
2022/07/12 07:16:29;;;;;;;1.73;0.85;;;;;;;;;;5097249;28;20110;-71
2022/07/12 07:20:14;;;;;;;2.47;0.95;;;;;;;;;;5101531;27;20412;-75
2022/07/12 07:22:41;;;;;;;3.65;0.77;;;;;;;;;;5110822;28;20031;-74
2022/07/12 07:25:56;;;;;;;2.65;0.93;;;;;;;;;;5065458;28;20481;-73
2022/07/12 07:28:22;;;;;;;1.92;1.08;;;;;;;;;;5046571;28;20013;-73
2022/07/12 07:30:54;;;;;;;1.75;0.80;;;;;;;;;;5049157;28;20034;-72
2022/07/12 07:35:58;;;;;;;2.08;0.80;;;;;;;;;;5108605;27;20424;-74
2022/07/12 07:38:25;;;;;;;3.97;1.05;;;;;;;;;;5095518;28;20122;-70
2022/07/12 07:44:04;;;;;;;1.85;0.63;;;;;;;;;;5110908;27;20393;-68
2022/07/12 07:46:31;;;;;;;3.78;0.80;;;;;;;;;;5108990;28;20427;-69
2022/07/12 07:48:57;;;;;;;3.97;1.30;;;;;;;;;;5108891;28;20114;-71
2022/07/12 07:51:23;;;;;;;3.00;1.00;;;;;;;;;;5106169;28;20040;-71
2022/07/12 08:02:20;;;;;;;5.13;1.17;;;;;;;;;;5108266;27;20408;-70
2022/07/12 08:04:47;;;;;;;4.55;1.38;;;;;;;;;;5102950;28;20050;-73
2022/07/12 08:08:50;;;;;;;2.78;1.05;;;;;;;;;;5160666;27;20349;-74
2022/07/12 08:11:17;;;;;;;1.92;1.00;;;;;;;;;;5132758;27;20467;-74
2022/07/12 08:13:43;;;;;;;4.57;1.20;;;;;;;;;;5148188;27;20032;-74
2022/07/12 08:16:56;;;;;;;1.88;0.80;;;;;;;;;;5067619;28;20422;-73
2022/07/12 08:19:22;;;;;;;3.03;0.70;;;;;;;;;;5065591;28;20031;-73
2022/07/12 08:21:48;;;;;;;2.63;1.00;;;;;;;;;;5048453;28;20060;-72
2022/07/12 08:24:14;;;;;;;1.70;0.70;;;;;;;;;;5047946;28;20024;-70
2022/07/12 08:27:35;;;;;;;2.95;1.00;;;;;;;;;;5104087;27;20433;-71
2022/07/12 08:31:51;;;;;;;2.67;0.90;;;;;;;;;;5097199;27;20768;-69
2022/07/12 08:38:37;;;;;;;3.08;0.80;;;;;;;;;;5108378;27;20400;-78
2022/07/12 08:41:06;;;;;;;2.38;0.75;;;;;;;;;;5090395;28;20037;-75
2022/07/12 08:44:29;;;;;;;4.90;1.35;;;;;;;;;;5088527;27;20390;-75
2022/07/12 08:46:56;;;;;;;2.38;1.10;;;;;;;;;;5082202;28;20076;-75
2022/07/12 08:50:34;;;;;;;1.63;0.60;;;;;;;;;;5066492;28;20435;-74
2022/07/12 08:53:00;;;;;;;1.95;0.88;;;;;;;;;;5047626;28;20541;-73
2022/07/12 08:55:30;;;;;;;5.70;1.38;;;;;;;;;;5030478;28;20433;-74
2022/07/12 09:00:34;;;;;;;2.50;0.85;;;;;;;;;;5103296;27;20414;-74
2022/07/12 09:03:02;;;;;;;4.05;1.00;;;;;;;;;;5098008;28;20028;-75
2022/07/12 09:07:15;;;;;;;1.35;0.63;;;;;;;;;;5142778;27;20800;-77
2022/07/12 09:09:41;;;;;;;3.10;1.20;;;;;;;;;;5114984;28;20077;-79
2022/07/12 09:12:09;;;;;;;5.18;1.10;;;;;;;;;;5112931;28;20074;-81
2022/07/12 09:14:35;;;;;;;2.05;0.80;;;;;;;;;;5114923;28;20027;-74
2022/07/12 09:19:13;;;;;;;3.92;0.57;;;;;;;;;;5100226;27;20404;-76
2022/07/12 09:22:36;;;;;;;3.20;0.70;;;;;;;;;;5124768;27;20887;-74
2022/07/12 09:25:58;;;;;;;1.65;0.70;;;;;;;;;;5106788;27;21038;-74
2022/07/12 09:28:25;;;;;;;3.05;0.88;;;;;;;;;;5099516;28;20028;-73
2022/07/12 09:30:52;;;;;;;1.17;0.57;;;;;;;;;;5097306;28;20534;-74
2022/07/12 09:36:56;;;;;;;4.35;0.85;;;;;;;;;;5067497;28;20399;-76
2022/07/12 09:39:24;;;;;;;1.45;0.80;;;;;;;;;;5059437;28;20029;-76
2022/07/12 09:44:01;;;;;;;2.15;1.00;;;;;;;;;;5101848;27;20405;-77
2022/07/12 09:46:28;;;;;;;4.35;0.93;;;;;;;;;;5088732;28;20110;-77
2022/07/12 09:48:54;;;;;;;2.47;0.85;;;;;;;;;;5077276;28;20024;-78
2022/07/12 09:51:21;;;;;;;3.72;1.08;;;;;;;;;;5089740;28;20039;-77
2022/07/12 09:53:48;;;;;;;3.85;1.02;;;;;;;;;;5078786;28;20063;-78
2022/07/12 09:56:15;;;;;;;2.20;0.60;;;;;;;;;;5083469;28;20016;-77
2022/07/12 09:58:41;;;;;;;1.63;0.60;;;;;;;;;;5087024;28;20020;-79
2022/07/12 10:01:08;;;;;;;1.52;0.70;;;;;;;;;;5088897;28;20073;-78
2022/07/12 10:06:29;;;;;;;3.08;0.88;;;;;;;;;;5087024;27;20464;-71
2022/07/12 10:08:56;;;;;;;2.17;0.60;;;;;;;;;;5080617;28;20025;-72
2022/07/12 10:11:23;;;;;;;1.70;0.70;;;;;;;;;;5072408;28;20025;-72
2022/07/12 10:14:49;;;;;;;3.33;0.85;;;;;;;;;;5103441;27;20435;-71
2022/07/12 10:17:22;;;;;;;1.35;0.70;;;;;;;;;;5090869;28;20418;-71
2022/07/12 10:19:48;;;;;;;2.03;0.70;;;;;;;;;;5086257;28;20050;-72
2022/07/12 10:22:21;;;;;;;2.92;0.65;;;;;;;;;;5084502;28;20485;-71
2022/07/12 10:24:54;;;;;;;3.95;0.70;;;;;;;;;;5088755;28;20093;-73
2022/07/12 10:27:21;;;;;;;3.70;0.85;;;;;;;;;;5084887;28;20494;-77
2022/07/12 10:29:48;;;;;;;2.05;0.73;;;;;;;;;;5088527;28;20111;-75
2022/07/12 10:34:21;;;;;;;2.25;0.98;;;;;;;;;;5056032;28;20442;-71
2022/07/12 10:36:56;;;;;;;2.90;1.35;;;;;;;;;;5042335;28;20485;-74
2022/07/12 10:39:22;;;;;;;2.83;1.10;;;;;;;;;;5045083;28;20103;-74
2022/07/12 10:42:18;;;;;;;5.82;1.45;;;;;;;;;;5029959;28;20025;-75
2022/07/12 10:44:47;;;;;;;2.10;0.90;;;;;;;;;;5028249;28;20041;-74
2022/07/12 10:47:14;;;;;;;2.75;1.08;;;;;;;;;;5030177;28;20061;-74
2022/07/12 10:49:46;;;;;;;2.00;0.65;;;;;;;;;;5029956;28;20414;-75
2022/07/12 10:52:13;;;;;;;2.67;1.00;;;;;;;;;;5024495;28;20068;-75
2022/07/12 10:55:02;;;;;;;4.93;1.15;;;;;;;;;;5026796;28;20478;-75
2022/07/12 10:57:43;;;;;;;3.33;1.23;;;;;;;;;;5039114;28;20501;-74
2022/07/12 11:00:09;;;;;;;3.15;1.02;;;;;;;;;;5024266;28;20026;-72
2022/07/12 11:04:15;;;;;;;1.80;1.00;;;;;;;;;;5098932;27;20917;-73
2022/07/12 11:06:42;;;;;;;4.50;0.90;;;;;;;;;;5087444;28;20020;-75
2022/07/12 11:09:12;;;;;;;2.55;1.00;;;;;;;;;;5087628;28;20024;-74
2022/07/12 11:11:43;;;;;;;4.97;1.20;;;;;;;;;;5086840;28;20484;-74
2022/07/12 11:14:11;;;;;;;1.55;0.95;;;;;;;;;;5088292;28;20485;-74
2022/07/12 11:16:44;;;;;;;3.28;0.80;;;;;;;;;;5089626;28;20024;-74
2022/07/12 11:19:10;;;;;;;2.50;0.90;;;;;;;;;;5089675;28;20024;-73
2022/07/12 11:21:36;;;;;;;1.70;0.90;;;;;;;;;;5090477;28;20039;-73
2022/07/12 11:24:02;;;;;;;3.13;1.00;;;;;;;;;;5090273;28;20082;-73
2022/07/12 11:26:33;;;;;;;1.55;0.70;;;;;;;;;;5088840;28;20065;-75
2022/07/12 11:28:59;;;;;;;2.42;1.70;;;;;;;;;;5087656;28;20075;-74
2022/07/12 11:31:26;;;;;;;2.17;1.48;;;;;;;;;;5081747;28;20074;-75
2022/07/12 11:33:52;;;;;;;2.15;1.05;;;;;;;;;;5089511;28;20024;-75
2022/07/12 11:36:19;;;;;;;3.10;1.10;;;;;;;;;;5088974;28;20026;-76
2022/07/12 11:38:46;;;;;;;2.75;1.33;;;;;;;;;;5089964;28;20031;-77
2022/07/12 11:41:13;;;;;;;6.80;1.30;;;;;;;;;;5089410;28;20028;-76
2022/07/12 11:43:39;;;;;;;1.77;0.98;;;;;;;;;;5088627;28;20119;-77
2022/07/12 11:46:06;;;;;;;3.65;0.90;;;;;;;;;;5088697;28;20051;-75
2022/07/12 11:48:32;;;;;;;1.92;0.90;;;;;;;;;;5086846;28;20028;-76
2022/07/12 11:51:09;;;;;;;2.65;1.00;;;;;;;;;;5089520;28;20108;-75
2022/07/12 11:53:36;;;;;;;2.25;1.05;;;;;;;;;;5089358;28;20095;-75
2022/07/12 11:56:03;;;;;;;1.42;0.85;;;;;;;;;;5089139;28;20066;-76
2022/07/12 11:58:29;;;;;;;0.93;0.77;;;;;;;;;;5087504;28;20038;-72
2022/07/12 12:00:56;;;;;;;3.40;1.20;;;;;;;;;;5073264;28;20032;-74
2022/07/12 12:03:23;;;;;;;1.90;0.90;;;;;;;;;;5068829;28;20061;-74
2022/07/12 12:05:53;;;;;;;2.25;1.10;;;;;;;;;;5078557;28;20480;-75
2022/07/12 12:08:21;;;;;;;2.92;0.88;;;;;;;;;;5074076;28;20025;-74
2022/07/12 12:10:55;;;;;;;1.45;1.20;;;;;;;;;;5085416;28;20020;-77
2022/07/12 12:13:22;;;;;;;3.17;1.08;;;;;;;;;;5071345;28;20029;-73
2022/07/12 12:16:02;;;;;;;2.47;1.10;;;;;;;;;;5052687;28;20480;-73
2022/07/12 12:18:38;;;;;;;4.38;1.30;;;;;;;;;;5053683;28;20028;-73
2022/07/12 12:21:05;;;;;;;1.50;0.95;;;;;;;;;;5053994;28;20021;-73
2022/07/12 12:23:32;;;;;;;3.30;1.10;;;;;;;;;;5068874;28;20037;-73
2022/07/12 12:26:11;;;;;;;1.45;0.90;;;;;;;;;;5069049;28;20032;-73
2022/07/12 12:28:42;;;;;;;2.50;1.10;;;;;;;;;;5052760;28;20052;-73
2022/07/12 12:31:09;;;;;;;3.67;1.73;;;;;;;;;;5052433;28;20100;-73
2022/07/12 12:33:40;;;;;;;3.78;1.38;;;;;;;;;;5068884;28;20477;-73
2022/07/12 12:36:13;;;;;;;2.15;0.82;;;;;;;;;;5053845;28;20036;-73
2022/07/12 12:38:39;;;;;;;0.95;0.82;;;;;;;;;;5054242;28;20017;-72
2022/07/12 12:41:06;;;;;;;4.20;1.00;;;;;;;;;;5054247;28;20021;-73
2022/07/12 12:43:32;;;;;;;1.52;0.88;;;;;;;;;;5070399;28;20045;-72
2022/07/12 12:45:59;;;;;;;1.48;0.77;;;;;;;;;;5055550;28;20017;-72
2022/07/12 12:48:26;;;;;;;4.47;1.02;;;;;;;;;;5071100;28;20029;-73
2022/07/12 12:50:53;;;;;;;4.28;0.90;;;;;;;;;;5055183;28;20104;-73
2022/07/12 12:53:25;;;;;;;2.50;0.85;;;;;;;;;;5055411;28;20029;-73
2022/07/12 12:55:53;;;;;;;1.88;0.80;;;;;;;;;;5055459;28;20056;-73
2022/07/12 12:58:20;;;;;;;1.90;0.77;;;;;;;;;;5055191;28;20029;-73
2022/07/12 13:00:47;;;;;;;0.95;0.80;;;;;;;;;;5055578;28;20024;-73
2022/07/12 13:03:14;;;;;;;1.17;0.70;;;;;;;;;;5070441;28;20056;-73
2022/07/12 13:05:40;;;;;;;2.63;0.80;;;;;;;;;;5070225;28;20025;-74
2022/07/12 13:08:08;;;;;;;2.45;0.90;;;;;;;;;;5055352;28;20036;-72
2022/07/12 13:10:34;;;;;;;2.35;0.98;;;;;;;;;;5069836;28;20469;-72
2022/07/12 13:13:02;;;;;;;1.63;1.08;;;;;;;;;;5054706;28;20048;-72
2022/07/12 13:15:28;;;;;;;2.15;0.80;;;;;;;;;;5070413;28;20018;-72
2022/07/12 13:17:54;;;;;;;0.75;0.70;;;;;;;;;;5069959;28;20025;-73
2022/07/12 13:20:21;;;;;;;1.95;0.68;;;;;;;;;;5054855;28;20028;-72
2022/07/12 13:22:47;;;;;;;3.50;0.88;;;;;;;;;;5054426;28;20444;-73
2022/07/12 13:25:14;;;;;;;1.27;0.63;;;;;;;;;;5054018;28;20029;-72
2022/07/12 13:27:40;;;;;;;2.42;0.80;;;;;;;;;;5054095;28;20025;-72
2022/07/12 13:30:07;;;;;;;1.05;0.50;;;;;;;;;;5054750;28;20131;-73
2022/07/12 13:32:34;;;;;;;1.42;0.75;;;;;;;;;;5054401;28;20062;-72
2022/07/12 13:35:01;;;;;;;1.55;0.75;;;;;;;;;;5054646;28;20046;-72
2022/07/12 13:37:27;;;;;;;2.33;0.73;;;;;;;;;;5070038;28;20098;-72
2022/07/12 13:40:14;;;;;;;1.23;1.10;;;;;;;;;;5069640;28;20025;-73
2022/07/12 13:42:42;;;;;;;1.30;0.70;;;;;;;;;;5054539;28;20025;-72
2022/07/12 13:45:10;;;;;;;2.35;0.65;;;;;;;;;;5054477;28;20017;-72
2022/07/12 13:47:36;;;;;;;3.58;1.13;;;;;;;;;;5069386;28;20029;-73
2022/07/12 13:50:04;;;;;;;1.77;0.80;;;;;;;;;;5069854;28;20481;-71
2022/07/12 13:52:30;;;;;;;1.40;0.90;;;;;;;;;;5069847;28;20474;-71
2022/07/12 13:54:56;;;;;;;1.80;0.90;;;;;;;;;;5053974;28;20033;-71
2022/07/12 13:57:22;;;;;;;6.50;1.05;;;;;;;;;;5054398;28;20100;-71
2022/07/12 13:59:49;;;;;;;1.15;0.90;;;;;;;;;;5054226;28;20481;-71
2022/07/12 14:02:15;;;;;;;3.88;1.00;;;;;;;;;;5053577;28;20045;-73
2022/07/12 14:04:41;;;;;;;1.75;0.77;;;;;;;;;;5054201;28;20021;-73
2022/07/12 14:07:08;;;;;;;1.45;0.57;;;;;;;;;;5069079;28;20025;-72
2022/07/12 14:09:34;;;;;;;3.58;1.08;;;;;;;;;;5054035;28;20112;-71
2022/07/12 14:12:01;;;;;;;1.80;0.70;;;;;;;;;;5053955;28;20017;-72
2022/07/12 14:17:13;;;;;;;2.97;1.00;;;;;;;;;;5053923;28;20040;-72
2022/07/12 14:19:39;;;;;;;0.45;0.45;;;;;;;;;;5053866;28;20025;-71
2022/07/12 14:22:05;;;;;;;1.60;0.65;;;;;;;;;;5053335;28;20465;-72
2022/07/12 14:24:31;;;;;;;0.98;0.70;;;;;;;;;;5053676;28;20033;-72
2022/07/12 14:26:57;;;;;;;1.02;0.80;;;;;;;;;;5053574;28;20096;-72
2022/07/12 14:29:24;;;;;;;1.27;0.63;;;;;;;;;;5053322;28;20039;-72
2022/07/12 14:31:51;;;;;;;1.90;0.70;;;;;;;;;;5053579;28;20017;-72
2022/07/12 14:34:18;;;;;;;1.90;0.93;;;;;;;;;;5054340;28;20039;-72
2022/07/12 14:36:44;;;;;;;1.27;0.50;;;;;;;;;;5052955;28;20020;-73
2022/07/12 14:39:11;;;;;;;1.58;0.88;;;;;;;;;;5053565;28;20025;-73
2022/07/12 14:41:37;;;;;;;2.72;0.60;;;;;;;;;;5053577;28;20078;-72
2022/07/12 14:44:06;;;;;;;1.35;0.65;;;;;;;;;;5068422;28;20037;-72
2022/07/12 14:46:33;;;;;;;1.67;0.52;;;;;;;;;;5053450;28;20013;-73
2022/07/12 14:48:59;;;;;;;0.93;0.60;;;;;;;;;;5053383;28;20032;-72
2022/07/12 14:51:25;;;;;;;0.68;0.60;;;;;;;;;;5068471;28;20017;-72
2022/07/12 14:53:54;;;;;;;1.10;0.70;;;;;;;;;;5053398;28;20504;-72
2022/07/12 14:56:21;;;;;;;1.58;0.80;;;;;;;;;;5052986;28;20029;-73
2022/07/12 14:58:47;;;;;;;0.73;0.60;;;;;;;;;;5053256;28;20017;-73
2022/07/12 15:01:13;;;;;;;0.93;0.60;;;;;;;;;;5053463;28;20087;-73
2022/07/12 15:03:39;;;;;;;2.05;0.60;;;;;;;;;;5068063;28;20049;-72
2022/07/12 15:06:05;;;;;;;1.05;0.68;;;;;;;;;;5053320;28;20018;-73
2022/07/12 15:08:31;;;;;;;1.13;0.52;;;;;;;;;;5053175;28;20104;-72
2022/07/12 15:10:58;;;;;;;1.20;0.70;;;;;;;;;;5052745;28;20470;-72
2022/07/12 15:13:24;;;;;;;4.72;1.02;;;;;;;;;;5053154;28;20036;-73
2022/07/12 15:15:51;;;;;;;1.52;0.85;;;;;;;;;;5068634;28;20021;-73
2022/07/12 15:18:17;;;;;;;1.95;0.70;;;;;;;;;;5068175;28;20017;-73
2022/07/12 15:20:43;;;;;;;1.35;0.50;;;;;;;;;;5068521;28;20512;-72
2022/07/12 15:23:09;;;;;;;1.83;0.77;;;;;;;;;;5052932;28;20474;-73
2022/07/12 15:25:35;;;;;;;0.50;0.50;;;;;;;;;;5052619;28;20100;-73
2022/07/12 15:28:02;;;;;;;2.80;0.65;;;;;;;;;;5068443;28;20453;-73
2022/07/12 15:30:28;;;;;;;2.45;0.52;;;;;;;;;;5068327;28;20022;-73
2022/07/12 15:32:54;;;;;;;1.45;0.60;;;;;;;;;;5052650;28;20032;-73
2022/07/12 15:35:21;;;;;;;4.97;0.95;;;;;;;;;;5053113;28;20021;-73
2022/07/12 15:37:47;;;;;;;2.53;0.60;;;;;;;;;;5053185;28;20427;-73
2022/07/12 15:40:13;;;;;;;0.77;0.60;;;;;;;;;;5052649;28;20021;-73
2022/07/12 15:42:40;;;;;;;2.83;1.50;;;;;;;;;;5068321;28;20056;-73
2022/07/12 15:45:06;;;;;;;2.17;0.50;;;;;;;;;;5052929;28;20113;-73
2022/07/12 15:47:34;;;;;;;2.22;0.70;;;;;;;;;;5067911;28;20017;-73
2022/07/12 15:50:00;;;;;;;0.93;0.70;;;;;;;;;;5054880;28;20066;-73
2022/07/12 15:55:11;;;;;;;3.53;0.95;;;;;;;;;;5056573;28;20052;-73
2022/07/12 15:57:37;;;;;;;1.55;0.68;;;;;;;;;;5056588;28;20036;-73
2022/07/12 16:00:05;;;;;;;3.13;0.90;;;;;;;;;;5056186;28;20381;-72
2022/07/12 16:02:31;;;;;;;1.08;0.60;;;;;;;;;;5056314;28;20175;-73
2022/07/12 16:04:57;;;;;;;2.67;0.70;;;;;;;;;;5071692;28;20032;-72
2022/07/12 16:07:24;;;;;;;1.67;0.80;;;;;;;;;;5071372;28;20021;-73
2022/07/12 16:09:52;;;;;;;2.63;0.88;;;;;;;;;;5071941;28;20021;-73
2022/07/12 16:12:18;;;;;;;3.97;0.90;;;;;;;;;;5071632;28;20390;-73
2022/07/12 16:14:45;;;;;;;4.05;0.98;;;;;;;;;;5055872;28;20381;-73
2022/07/12 16:17:11;;;;;;;1.23;0.68;;;;;;;;;;5071526;28;20025;-72
2022/07/12 16:19:37;;;;;;;1.33;0.70;;;;;;;;;;5056029;28;20504;-72
2022/07/12 16:22:03;;;;;;;2.60;0.70;;;;;;;;;;5071008;28;20029;-73
2022/07/12 16:24:30;;;;;;;2.65;0.93;;;;;;;;;;5056011;28;20469;-73
2022/07/12 16:26:56;;;;;;;3.33;0.70;;;;;;;;;;5055929;28;20511;-72
2022/07/12 16:29:22;;;;;;;2.00;0.90;;;;;;;;;;5070782;28;20029;-72
2022/07/12 16:31:50;;;;;;;1.10;0.75;;;;;;;;;;5056012;28;20424;-72
2022/07/12 16:34:17;;;;;;;0.70;0.70;;;;;;;;;;5055881;28;20017;-72
2022/07/12 16:36:43;;;;;;;2.78;0.90;;;;;;;;;;5070904;28;20025;-72
2022/07/12 16:40:35;;;;;;;1.63;1.00;;;;;;;;;;5111674;27;20415;-72
2022/07/12 16:43:02;;;;;;;1.65;0.90;;;;;;;;;;5110936;28;20031;-71
2022/07/12 16:45:30;;;;;;;2.85;1.00;;;;;;;;;;5109980;28;20023;-72
2022/07/12 16:47:57;;;;;;;2.35;1.08;;;;;;;;;;5111222;28;20099;-72
2022/07/12 16:50:23;;;;;;;3.15;1.17;;;;;;;;;;5110834;28;20472;-72
2022/07/12 16:52:49;;;;;;;3.15;1.13;;;;;;;;;;5111020;28;20020;-72
2022/07/12 16:55:15;;;;;;;1.23;0.68;;;;;;;;;;5111075;28;20028;-71
2022/07/12 16:58:53;;;;;;;1.48;1.23;;;;;;;;;;5111904;27;20415;-73
2022/07/12 17:01:47;;;;;;;4.75;1.15;;;;;;;;;;5105189;27;1439988;-72
2022/07/12 17:04:13;;;;;;;1.48;0.90;;;;;;;;;;5131417;28;20027;-72
2022/07/12 17:06:39;;;;;;;3.22;0.90;;;;;;;;;;5131741;28;20383;-72
2022/07/12 17:09:05;;;;;;;1.90;1.10;;;;;;;;;;5131665;27;20480;-72
2022/07/12 17:11:31;;;;;;;1.88;1.00;;;;;;;;;;5131260;28;20073;-72
2022/07/12 17:13:58;;;;;;;3.08;1.42;;;;;;;;;;5130201;28;20383;-72
2022/07/12 17:16:24;;;;;;;2.67;1.00;;;;;;;;;;5130250;28;20034;-72
2022/07/12 17:18:50;;;;;;;3.22;1.13;;;;;;;;;;5130989;28;20060;-72